sensor_id;sensor_type;location;lat;lon;timestamp;temperature;humidity
75457;SHT31;64036;48.266;14.192;2022-11-06T00:01:10;7.92;86.19
75457;SHT31;64036;48.266;14.192;2022-11-06T00:03:41;7.93;86.20
75457;SHT31;64036;48.266;14.192;2022-11-06T00:06:13;7.95;86.23
75457;SHT31;64036;48.266;14.192;2022-11-06T00:09:00;7.97;86.30
75457;SHT31;64036;48.266;14.192;2022-11-06T00:11:38;8.01;86.33
75457;SHT31;64036;48.266;14.192;2022-11-06T00:14:05;8.02;86.33
75457;SHT31;64036;48.266;14.192;2022-11-06T00:16:32;8.05;86.38
75457;SHT31;64036;48.266;14.192;2022-11-06T00:19:01;8.05;86.41
75457;SHT31;64036;48.266;14.192;2022-11-06T00:21:28;8.06;86.40
75457;SHT31;64036;48.266;14.192;2022-11-06T00:23:56;8.09;86.34
75457;SHT31;64036;48.266;14.192;2022-11-06T00:26:24;8.12;86.32
75457;SHT31;64036;48.266;14.192;2022-11-06T00:28:52;8.12;86.30
75457;SHT31;64036;48.266;14.192;2022-11-06T00:31:20;8.13;86.29
75457;SHT31;64036;48.266;14.192;2022-11-06T00:33:54;8.14;86.25
75457;SHT31;64036;48.266;14.192;2022-11-06T00:36:23;8.15;86.20
75457;SHT31;64036;48.266;14.192;2022-11-06T00:38:50;8.14;86.12
75457;SHT31;64036;48.266;14.192;2022-11-06T00:41:18;8.14;86.05
75457;SHT31;64036;48.266;14.192;2022-11-06T00:43:48;8.13;86.00
75457;SHT31;64036;48.266;14.192;2022-11-06T00:46:20;8.13;85.99
75457;SHT31;64036;48.266;14.192;2022-11-06T00:48:46;8.14;85.93
75457;SHT31;64036;48.266;14.192;2022-11-06T00:51:14;8.12;85.92
75457;SHT31;64036;48.266;14.192;2022-11-06T00:53:46;8.10;85.92
75457;SHT31;64036;48.266;14.192;2022-11-06T00:56:14;8.09;85.82
75457;SHT31;64036;48.266;14.192;2022-11-06T00:58:42;8.06;85.73
75457;SHT31;64036;48.266;14.192;2022-11-06T01:01:17;8.03;85.70
75457;SHT31;64036;48.266;14.192;2022-11-06T01:03:46;8.02;85.61
75457;SHT31;64036;48.266;14.192;2022-11-06T01:06:19;8.01;85.60
75457;SHT31;64036;48.266;14.192;2022-11-06T01:08:47;8.02;85.60
75457;SHT31;64036;48.266;14.192;2022-11-06T01:11:22;8.01;85.50
75457;SHT31;64036;48.266;14.192;2022-11-06T01:13:52;8.01;85.50
75457;SHT31;64036;48.266;14.192;2022-11-06T01:16:21;7.99;85.49
75457;SHT31;64036;48.266;14.192;2022-11-06T01:18:48;7.97;85.37
75457;SHT31;64036;48.266;14.192;2022-11-06T01:21:25;7.97;85.29
75457;SHT31;64036;48.266;14.192;2022-11-06T01:23:54;7.95;85.26
75457;SHT31;64036;48.266;14.192;2022-11-06T01:26:24;7.94;85.19
75457;SHT31;64036;48.266;14.192;2022-11-06T01:28:51;7.92;85.05
75457;SHT31;64036;48.266;14.192;2022-11-06T01:31:19;7.91;85.03
75457;SHT31;64036;48.266;14.192;2022-11-06T01:33:51;7.89;85.02
75457;SHT31;64036;48.266;14.192;2022-11-06T01:36:17;7.88;85.09
75457;SHT31;64036;48.266;14.192;2022-11-06T01:38:45;7.86;85.12
75457;SHT31;64036;48.266;14.192;2022-11-06T01:41:16;7.85;85.09
75457;SHT31;64036;48.266;14.192;2022-11-06T01:43:52;7.83;85.07
75457;SHT31;64036;48.266;14.192;2022-11-06T01:46:38;7.75;85.54
75457;SHT31;64036;48.266;14.192;2022-11-06T01:51:37;7.71;85.54
75457;SHT31;64036;48.266;14.192;2022-11-06T01:54:12;7.69;85.43
75457;SHT31;64036;48.266;14.192;2022-11-06T01:56:39;7.66;85.45
75457;SHT31;64036;48.266;14.192;2022-11-06T01:59:08;7.61;85.45
75457;SHT31;64036;48.266;14.192;2022-11-06T02:01:37;7.57;85.68
75457;SHT31;64036;48.266;14.192;2022-11-06T02:06:51;7.48;85.62
75457;SHT31;64036;48.266;14.192;2022-11-06T02:09:17;7.43;85.51
75457;SHT31;64036;48.266;14.192;2022-11-06T02:11:51;7.38;85.50
75457;SHT31;64036;48.266;14.192;2022-11-06T02:20:38;7.18;85.32
75457;SHT31;64036;48.266;14.192;2022-11-06T02:27:23;6.99;85.25
75457;SHT31;64036;48.266;14.192;2022-11-06T02:32:31;6.85;85.01
75457;SHT31;64036;48.266;14.192;2022-11-06T02:35:23;6.76;84.90
75457;SHT31;64036;48.266;14.192;2022-11-06T02:37:56;6.66;84.91
75457;SHT31;64036;48.266;14.192;2022-11-06T02:40:25;6.55;84.95
75457;SHT31;64036;48.266;14.192;2022-11-06T02:42:57;6.45;84.97
75457;SHT31;64036;48.266;14.192;2022-11-06T02:45:27;6.37;84.98
75457;SHT31;64036;48.266;14.192;2022-11-06T02:47:54;6.31;84.90
75457;SHT31;64036;48.266;14.192;2022-11-06T02:50:25;6.24;84.90
75457;SHT31;64036;48.266;14.192;2022-11-06T02:55:27;6.15;85.00
75457;SHT31;64036;48.266;14.192;2022-11-06T02:58:18;6.10;84.99
75457;SHT31;64036;48.266;14.192;2022-11-06T03:01:04;6.04;84.91
75457;SHT31;64036;48.266;14.192;2022-11-06T03:03:39;5.98;84.83
75457;SHT31;64036;48.266;14.192;2022-11-06T03:06:12;5.93;84.85
75457;SHT31;64036;48.266;14.192;2022-11-06T03:08:54;5.90;85.00
75457;SHT31;64036;48.266;14.192;2022-11-06T03:11:31;5.86;85.02
75457;SHT31;64036;48.266;14.192;2022-11-06T03:16:56;5.80;85.09
75457;SHT31;64036;48.266;14.192;2022-11-06T03:27:49;5.62;85.10
75457;SHT31;64036;48.266;14.192;2022-11-06T03:30:27;5.57;85.28
75457;SHT31;64036;48.266;14.192;2022-11-06T03:32:54;5.57;85.33
75457;SHT31;64036;48.266;14.192;2022-11-06T03:35:31;5.56;85.42
75457;SHT31;64036;48.266;14.192;2022-11-06T03:38:39;5.57;85.58
75457;SHT31;64036;48.266;14.192;2022-11-06T03:44:02;5.52;85.77
75457;SHT31;64036;48.266;14.192;2022-11-06T03:46:30;5.47;85.95
75457;SHT31;64036;48.266;14.192;2022-11-06T03:49:02;5.45;86.10
75457;SHT31;64036;48.266;14.192;2022-11-06T03:51:49;5.46;86.13
75457;SHT31;64036;48.266;14.192;2022-11-06T03:54:22;5.44;86.10
75457;SHT31;64036;48.266;14.192;2022-11-06T03:59:54;5.43;86.39
75457;SHT31;64036;48.266;14.192;2022-11-06T04:02:29;5.43;86.55
75457;SHT31;64036;48.266;14.192;2022-11-06T04:04:58;5.43;86.69
75457;SHT31;64036;48.266;14.192;2022-11-06T04:07:30;5.46;86.78
75457;SHT31;64036;48.266;14.192;2022-11-06T04:10:01;5.49;86.89
75457;SHT31;64036;48.266;14.192;2022-11-06T04:12:51;5.52;86.92
75457;SHT31;64036;48.266;14.192;2022-11-06T04:15:46;5.55;86.91
75457;SHT31;64036;48.266;14.192;2022-11-06T04:18:17;5.56;86.88
75457;SHT31;64036;48.266;14.192;2022-11-06T04:23:49;5.59;87.05
75457;SHT31;64036;48.266;14.192;2022-11-06T04:30:01;5.70;87.54
75457;SHT31;64036;48.266;14.192;2022-11-06T04:38:46;5.87;87.87
75457;SHT31;64036;48.266;14.192;2022-11-06T04:44:31;5.95;88.34
75457;SHT31;64036;48.266;14.192;2022-11-06T04:47:11;6.00;88.37
75457;SHT31;64036;48.266;14.192;2022-11-06T04:49:41;6.06;88.37
75457;SHT31;64036;48.266;14.192;2022-11-06T04:52:12;6.10;88.34
75457;SHT31;64036;48.266;14.192;2022-11-06T04:54:45;6.16;88.40
75457;SHT31;64036;48.266;14.192;2022-11-06T04:57:12;6.22;88.39
75457;SHT31;64036;48.266;14.192;2022-11-06T04:59:38;6.28;88.39
75457;SHT31;64036;48.266;14.192;2022-11-06T05:02:03;6.30;88.32
75457;SHT31;64036;48.266;14.192;2022-11-06T05:04:30;6.32;88.30
75457;SHT31;64036;48.266;14.192;2022-11-06T05:06:56;6.32;88.34
75457;SHT31;64036;48.266;14.192;2022-11-06T05:09:22;6.29;88.36
75457;SHT31;64036;48.266;14.192;2022-11-06T05:11:49;6.31;88.40
75457;SHT31;64036;48.266;14.192;2022-11-06T05:14:15;6.35;88.41
75457;SHT31;64036;48.266;14.192;2022-11-06T05:16:41;6.38;88.44
75457;SHT31;64036;48.266;14.192;2022-11-06T05:19:06;6.43;88.48
75457;SHT31;64036;48.266;14.192;2022-11-06T05:21:32;6.48;88.43
75457;SHT31;64036;48.266;14.192;2022-11-06T05:24:17;6.52;88.40
75457;SHT31;64036;48.266;14.192;2022-11-06T05:26:43;6.56;88.35
75457;SHT31;64036;48.266;14.192;2022-11-06T05:29:09;6.59;88.30
75457;SHT31;64036;48.266;14.192;2022-11-06T05:31:36;6.63;88.22
75457;SHT31;64036;48.266;14.192;2022-11-06T05:34:02;6.63;88.11
75457;SHT31;64036;48.266;14.192;2022-11-06T05:36:27;6.63;88.10
75457;SHT31;64036;48.266;14.192;2022-11-06T05:38:53;6.63;88.10
75457;SHT31;64036;48.266;14.192;2022-11-06T05:41:18;6.66;88.13
75457;SHT31;64036;48.266;14.192;2022-11-06T05:43:44;6.70;88.14
75457;SHT31;64036;48.266;14.192;2022-11-06T05:46:10;6.73;88.09
75457;SHT31;64036;48.266;14.192;2022-11-06T05:48:35;6.75;88.02
75457;SHT31;64036;48.266;14.192;2022-11-06T05:51:02;6.76;88.04
75457;SHT31;64036;48.266;14.192;2022-11-06T05:53:30;6.78;88.04
75457;SHT31;64036;48.266;14.192;2022-11-06T05:55:56;6.81;88.02
75457;SHT31;64036;48.266;14.192;2022-11-06T05:58:22;6.84;88.04
75457;SHT31;64036;48.266;14.192;2022-11-06T06:00:47;6.88;88.00
75457;SHT31;64036;48.266;14.192;2022-11-06T06:03:13;6.93;87.95
75457;SHT31;64036;48.266;14.192;2022-11-06T06:05:39;6.99;87.92
75457;SHT31;64036;48.266;14.192;2022-11-06T06:08:04;7.00;87.74
75457;SHT31;64036;48.266;14.192;2022-11-06T06:10:31;7.03;87.81
75457;SHT31;64036;48.266;14.192;2022-11-06T06:12:56;7.07;87.71
75457;SHT31;64036;48.266;14.192;2022-11-06T06:15:22;7.09;87.56
75457;SHT31;64036;48.266;14.192;2022-11-06T06:17:47;7.09;87.50
75457;SHT31;64036;48.266;14.192;2022-11-06T06:20:13;7.13;87.52
75457;SHT31;64036;48.266;14.192;2022-11-06T06:22:38;7.17;87.41
75457;SHT31;64036;48.266;14.192;2022-11-06T06:25:04;7.15;87.32
75457;SHT31;64036;48.266;14.192;2022-11-06T06:27:30;7.09;87.32
75457;SHT31;64036;48.266;14.192;2022-11-06T06:29:56;7.05;87.54
75457;SHT31;64036;48.266;14.192;2022-11-06T06:32:22;7.04;87.58
75457;SHT31;64036;48.266;14.192;2022-11-06T06:34:47;7.05;87.54
75457;SHT31;64036;48.266;14.192;2022-11-06T06:37:13;7.11;87.52
75457;SHT31;64036;48.266;14.192;2022-11-06T06:39:39;7.14;87.42
75457;SHT31;64036;48.266;14.192;2022-11-06T06:42:04;7.20;87.42
75457;SHT31;64036;48.266;14.192;2022-11-06T06:44:30;7.30;87.26
75457;SHT31;64036;48.266;14.192;2022-11-06T06:46:56;7.48;87.06
75457;SHT31;64036;48.266;14.192;2022-11-06T06:49:21;7.71;86.90
75457;SHT31;64036;48.266;14.192;2022-11-06T06:51:47;8.02;86.58
75457;SHT31;64036;48.266;14.192;2022-11-06T06:54:14;8.27;85.91
75457;SHT31;64036;48.266;14.192;2022-11-06T06:56:40;8.30;85.41
75457;SHT31;64036;48.266;14.192;2022-11-06T06:59:06;8.18;85.10
75457;SHT31;64036;48.266;14.192;2022-11-06T07:01:32;8.17;85.14
75457;SHT31;64036;48.266;14.192;2022-11-06T07:03:58;8.27;85.14
75457;SHT31;64036;48.266;14.192;2022-11-06T07:06:24;8.35;85.08
75457;SHT31;64036;48.266;14.192;2022-11-06T07:08:53;8.38;84.91
75457;SHT31;64036;48.266;14.192;2022-11-06T07:11:20;8.32;84.71
75457;SHT31;64036;48.266;14.192;2022-11-06T07:13:46;8.23;84.63
75457;SHT31;64036;48.266;14.192;2022-11-06T07:16:11;8.15;84.59
75457;SHT31;64036;48.266;14.192;2022-11-06T07:18:38;8.09;84.46
75457;SHT31;64036;48.266;14.192;2022-11-06T07:21:08;7.99;84.48
75457;SHT31;64036;48.266;14.192;2022-11-06T07:23:36;7.89;84.57
75457;SHT31;64036;48.266;14.192;2022-11-06T07:26:03;7.74;84.55
75457;SHT31;64036;48.266;14.192;2022-11-06T07:28:29;7.62;84.76
75457;SHT31;64036;48.266;14.192;2022-11-06T07:30:59;7.53;85.04
75457;SHT31;64036;48.266;14.192;2022-11-06T07:33:27;7.42;85.31
75457;SHT31;64036;48.266;14.192;2022-11-06T07:35:54;7.33;85.46
75457;SHT31;64036;48.266;14.192;2022-11-06T07:38:19;7.25;85.69
75457;SHT31;64036;48.266;14.192;2022-11-06T07:40:45;7.19;85.91
75457;SHT31;64036;48.266;14.192;2022-11-06T07:43:10;7.19;86.15
75457;SHT31;64036;48.266;14.192;2022-11-06T07:45:37;7.19;86.21
75457;SHT31;64036;48.266;14.192;2022-11-06T07:48:03;7.20;86.31
75457;SHT31;64036;48.266;14.192;2022-11-06T07:50:33;7.24;86.31
75457;SHT31;64036;48.266;14.192;2022-11-06T07:53:00;7.31;86.31
75457;SHT31;64036;48.266;14.192;2022-11-06T07:55:27;7.36;86.28
75457;SHT31;64036;48.266;14.192;2022-11-06T07:57:52;7.45;86.21
75457;SHT31;64036;48.266;14.192;2022-11-06T08:00:18;7.54;86.16
75457;SHT31;64036;48.266;14.192;2022-11-06T08:02:49;7.59;86.06
75457;SHT31;64036;48.266;14.192;2022-11-06T08:05:16;7.66;86.05
75457;SHT31;64036;48.266;14.192;2022-11-06T08:07:42;7.70;85.82
75457;SHT31;64036;48.266;14.192;2022-11-06T08:10:08;7.74;85.92
75457;SHT31;64036;48.266;14.192;2022-11-06T08:12:33;7.81;85.80
75457;SHT31;64036;48.266;14.192;2022-11-06T08:14:59;7.91;85.71
75457;SHT31;64036;48.266;14.192;2022-11-06T08:17:26;8.01;85.56
75457;SHT31;64036;48.266;14.192;2022-11-06T08:19:51;8.07;85.22
75457;SHT31;64036;48.266;14.192;2022-11-06T08:22:17;8.16;85.17
75457;SHT31;64036;48.266;14.192;2022-11-06T08:24:43;8.28;85.02
75457;SHT31;64036;48.266;14.192;2022-11-06T08:27:08;8.33;84.53
75457;SHT31;64036;48.266;14.192;2022-11-06T08:29:34;8.33;84.51
75457;SHT31;64036;48.266;14.192;2022-11-06T08:31:59;8.38;84.49
75457;SHT31;64036;48.266;14.192;2022-11-06T08:34:25;8.43;84.35
75457;SHT31;64036;48.266;14.192;2022-11-06T08:36:50;8.53;84.13
75457;SHT31;64036;48.266;14.192;2022-11-06T08:39:16;8.54;83.82
75457;SHT31;64036;48.266;14.192;2022-11-06T08:41:42;8.56;83.84
75457;SHT31;64036;48.266;14.192;2022-11-06T08:44:09;8.65;83.78
75457;SHT31;64036;48.266;14.192;2022-11-06T08:46:34;8.72;83.77
75457;SHT31;64036;48.266;14.192;2022-11-06T08:49:00;8.79;83.39
75457;SHT31;64036;48.266;14.192;2022-11-06T08:51:25;8.73;83.12
75457;SHT31;64036;48.266;14.192;2022-11-06T08:53:51;8.73;83.14
75457;SHT31;64036;48.266;14.192;2022-11-06T08:56:16;8.79;83.14
75457;SHT31;64036;48.266;14.192;2022-11-06T08:58:42;8.81;83.15
75457;SHT31;64036;48.266;14.192;2022-11-06T09:01:08;8.86;83.28
75457;SHT31;64036;48.266;14.192;2022-11-06T09:03:34;8.91;83.13
75457;SHT31;64036;48.266;14.192;2022-11-06T09:05:59;8.90;82.99
75457;SHT31;64036;48.266;14.192;2022-11-06T09:08:25;8.98;83.06
75457;SHT31;64036;48.266;14.192;2022-11-06T09:10:51;9.09;82.67
75457;SHT31;64036;48.266;14.192;2022-11-06T09:13:17;9.20;82.40
75457;SHT31;64036;48.266;14.192;2022-11-06T09:15:42;9.25;81.82
75457;SHT31;64036;48.266;14.192;2022-11-06T09:18:11;9.34;81.76
75457;SHT31;64036;48.266;14.192;2022-11-06T09:20:36;9.46;81.42
75457;SHT31;64036;48.266;14.192;2022-11-06T09:23:03;9.52;80.99
75457;SHT31;64036;48.266;14.192;2022-11-06T09:25:31;9.55;80.56
75457;SHT31;64036;48.266;14.192;2022-11-06T09:27:58;9.64;81.03
75457;SHT31;64036;48.266;14.192;2022-11-06T09:30:24;9.74;80.74
75457;SHT31;64036;48.266;14.192;2022-11-06T09:32:53;9.76;80.22
75457;SHT31;64036;48.266;14.192;2022-11-06T09:35:22;9.76;79.91
75457;SHT31;64036;48.266;14.192;2022-11-06T09:37:50;9.74;79.69
75457;SHT31;64036;48.266;14.192;2022-11-06T09:43:10;9.79;79.95
75457;SHT31;64036;48.266;14.192;2022-11-06T09:46:03;9.88;79.72
75457;SHT31;64036;48.266;14.192;2022-11-06T09:51:31;10.08;78.63
75457;SHT31;64036;48.266;14.192;2022-11-06T09:56:31;10.21;78.67
75457;SHT31;64036;48.266;14.192;2022-11-06T09:59:03;10.30;78.54
75457;SHT31;64036;48.266;14.192;2022-11-06T10:01:37;10.41;77.98
75457;SHT31;64036;48.266;14.192;2022-11-06T10:04:13;10.52;77.45
75457;SHT31;64036;48.266;14.192;2022-11-06T10:06:48;10.70;77.40
75457;SHT31;64036;48.266;14.192;2022-11-06T10:09:13;10.83;76.97
75457;SHT31;64036;48.266;14.192;2022-11-06T10:14:23;11.06;76.50
75457;SHT31;64036;48.266;14.192;2022-11-06T10:17:32;11.28;75.43
75457;SHT31;64036;48.266;14.192;2022-11-06T10:20:53;11.50;74.68
75457;SHT31;64036;48.266;14.192;2022-11-06T10:26:17;12.18;73.82
75457;SHT31;64036;48.266;14.192;2022-11-06T10:31:24;12.76;71.04
75457;SHT31;64036;48.266;14.192;2022-11-06T10:34:11;12.78;70.22
75457;SHT31;64036;48.266;14.192;2022-11-06T10:36:49;12.80;70.10
75457;SHT31;64036;48.266;14.192;2022-11-06T10:39:21;12.81;69.66
75457;SHT31;64036;48.266;14.192;2022-11-06T10:41:55;12.68;69.67
75457;SHT31;64036;48.266;14.192;2022-11-06T10:44:32;12.44;69.36
75457;SHT31;64036;48.266;14.192;2022-11-06T10:47:05;12.30;69.46
75457;SHT31;64036;48.266;14.192;2022-11-06T10:49:45;12.22;70.23
75457;SHT31;64036;48.266;14.192;2022-11-06T10:58:02;12.32;69.19
75457;SHT31;64036;48.266;14.192;2022-11-06T11:00:38;12.38;68.87
75457;SHT31;64036;48.266;14.192;2022-11-06T11:03:05;12.48;69.13
75457;SHT31;64036;48.266;14.192;2022-11-06T11:05:46;12.44;69.75
75457;SHT31;64036;48.266;14.192;2022-11-06T11:13:40;13.13;68.29
75457;SHT31;64036;48.266;14.192;2022-11-06T11:16:15;13.10;68.28
75457;SHT31;64036;48.266;14.192;2022-11-06T11:18:47;13.29;67.57
75457;SHT31;64036;48.266;14.192;2022-11-06T11:23:46;13.63;66.84
75457;SHT31;64036;48.266;14.192;2022-11-06T11:26:28;13.74;66.59
75457;SHT31;64036;48.266;14.192;2022-11-06T11:28:58;13.82;66.47
75457;SHT31;64036;48.266;14.192;2022-11-06T11:31:34;13.88;65.68
75457;SHT31;64036;48.266;14.192;2022-11-06T11:34:01;13.91;65.88
75457;SHT31;64036;48.266;14.192;2022-11-06T11:36:51;14.01;65.94
75457;SHT31;64036;48.266;14.192;2022-11-06T11:39:36;13.98;65.51
75457;SHT31;64036;48.266;14.192;2022-11-06T11:42:27;13.98;65.79
75457;SHT31;64036;48.266;14.192;2022-11-06T11:45:05;13.90;64.40
75457;SHT31;64036;48.266;14.192;2022-11-06T11:47:35;13.76;65.28
75457;SHT31;64036;48.266;14.192;2022-11-06T11:52:40;13.44;64.78
75457;SHT31;64036;48.266;14.192;2022-11-06T11:55:21;13.32;65.36
75457;SHT31;64036;48.266;14.192;2022-11-06T11:57:52;13.33;65.71
75457;SHT31;64036;48.266;14.192;2022-11-06T12:00:23;13.44;65.99
75457;SHT31;64036;48.266;14.192;2022-11-06T12:02:59;13.45;64.76
75457;SHT31;64036;48.266;14.192;2022-11-06T12:05:34;13.32;64.56
75457;SHT31;64036;48.266;14.192;2022-11-06T12:08:05;13.10;65.17
75457;SHT31;64036;48.266;14.192;2022-11-06T12:10:38;13.20;65.79
75457;SHT31;64036;48.266;14.192;2022-11-06T12:13:16;13.22;65.43
75457;SHT31;64036;48.266;14.192;2022-11-06T12:18:43;13.41;65.53
75457;SHT31;64036;48.266;14.192;2022-11-06T12:21:14;13.37;64.29
75457;SHT31;64036;48.266;14.192;2022-11-06T12:26:35;13.44;64.98
75457;SHT31;64036;48.266;14.192;2022-11-06T12:29:22;13.47;64.67
75457;SHT31;64036;48.266;14.192;2022-11-06T12:34:57;13.46;64.71
75457;SHT31;64036;48.266;14.192;2022-11-06T12:40:19;13.38;64.33
75457;SHT31;64036;48.266;14.192;2022-11-06T12:45:47;13.31;63.82
75457;SHT31;64036;48.266;14.192;2022-11-06T12:48:28;13.27;64.13
75457;SHT31;64036;48.266;14.192;2022-11-06T12:59:54;13.09;64.00
75457;SHT31;64036;48.266;14.192;2022-11-06T13:08:53;12.87;62.35
75457;SHT31;64036;48.266;14.192;2022-11-06T13:11:38;12.84;62.40
75457;SHT31;64036;48.266;14.192;2022-11-06T13:14:27;12.82;63.38
75457;SHT31;64036;48.266;14.192;2022-11-06T13:17:31;12.82;63.66
75457;SHT31;64036;48.266;14.192;2022-11-06T13:21:05;12.80;62.98
75457;SHT31;64036;48.266;14.192;2022-11-06T13:23:37;12.77;63.22
75457;SHT31;64036;48.266;14.192;2022-11-06T13:28:56;12.74;63.38
75457;SHT31;64036;48.266;14.192;2022-11-06T13:31:50;12.77;63.12
75457;SHT31;64036;48.266;14.192;2022-11-06T13:36:58;12.74;62.07
75457;SHT31;64036;48.266;14.192;2022-11-06T13:39:45;12.71;61.86
75457;SHT31;64036;48.266;14.192;2022-11-06T13:43:04;12.63;61.29
75457;SHT31;64036;48.266;14.192;2022-11-06T13:57:14;12.44;60.65
75457;SHT31;64036;48.266;14.192;2022-11-06T14:08:45;12.38;60.15
75457;SHT31;64036;48.266;14.192;2022-11-06T14:11:26;12.37;60.41
75457;SHT31;64036;48.266;14.192;2022-11-06T14:19:40;12.39;61.98
75457;SHT31;64036;48.266;14.192;2022-11-06T14:25:00;12.32;61.72
75457;SHT31;64036;48.266;14.192;2022-11-06T14:30:36;12.25;60.39
75457;SHT31;64036;48.266;14.192;2022-11-06T14:33:09;12.20;60.52
75457;SHT31;64036;48.266;14.192;2022-11-06T14:35:57;12.12;60.17
75457;SHT31;64036;48.266;14.192;2022-11-06T14:38:30;12.06;59.86
75457;SHT31;64036;48.266;14.192;2022-11-06T14:40:58;12.01;59.54
75457;SHT31;64036;48.266;14.192;2022-11-06T14:43:31;11.94;58.81
75457;SHT31;64036;48.266;14.192;2022-11-06T14:48:34;11.88;56.26
75457;SHT31;64036;48.266;14.192;2022-11-06T14:51:07;11.85;55.70
75457;SHT31;64036;48.266;14.192;2022-11-06T14:53:37;11.83;56.09
75457;SHT31;64036;48.266;14.192;2022-11-06T14:56:11;11.79;56.29
75457;SHT31;64036;48.266;14.192;2022-11-06T14:58:53;11.73;56.75
75457;SHT31;64036;48.266;14.192;2022-11-06T15:01:26;11.64;57.05
75457;SHT31;64036;48.266;14.192;2022-11-06T15:04:00;11.56;57.13
75457;SHT31;64036;48.266;14.192;2022-11-06T15:08:56;11.45;58.15
75457;SHT31;64036;48.266;14.192;2022-11-06T15:13:55;11.32;59.08
75457;SHT31;64036;48.266;14.192;2022-11-06T15:16:42;11.21;59.43
75457;SHT31;64036;48.266;14.192;2022-11-06T15:24:56;11.03;60.29
75457;SHT31;64036;48.266;14.192;2022-11-06T15:27:37;11.01;60.40
75457;SHT31;64036;48.266;14.192;2022-11-06T15:30:15;10.94;60.95
75457;SHT31;64036;48.266;14.192;2022-11-06T15:32:42;10.85;60.84
75457;SHT31;64036;48.266;14.192;2022-11-06T15:35:30;10.80;61.55
75457;SHT31;64036;48.266;14.192;2022-11-06T15:38:05;10.73;61.30
75457;SHT31;64036;48.266;14.192;2022-11-06T15:40:44;10.69;61.58
75457;SHT31;64036;48.266;14.192;2022-11-06T15:43:28;10.62;61.70
75457;SHT31;64036;48.266;14.192;2022-11-06T15:48:48;10.46;62.37
75457;SHT31;64036;48.266;14.192;2022-11-06T15:51:53;10.38;62.95
75457;SHT31;64036;48.266;14.192;2022-11-06T15:54:29;10.29;63.23
75457;SHT31;64036;48.266;14.192;2022-11-06T15:56:58;10.20;63.49
75457;SHT31;64036;48.266;14.192;2022-11-06T15:59:30;10.14;64.05
75457;SHT31;64036;48.266;14.192;2022-11-06T16:01:55;10.06;64.38
75457;SHT31;64036;48.266;14.192;2022-11-06T16:04:22;9.97;64.80
75457;SHT31;64036;48.266;14.192;2022-11-06T16:06:53;9.90;64.93
75457;SHT31;64036;48.266;14.192;2022-11-06T16:09:23;9.87;64.84
75457;SHT31;64036;48.266;14.192;2022-11-06T16:11:51;9.85;64.92
75457;SHT31;64036;48.266;14.192;2022-11-06T16:14:17;9.79;65.12
75457;SHT31;64036;48.266;14.192;2022-11-06T16:16:44;9.76;65.21
75457;SHT31;64036;48.266;14.192;2022-11-06T16:19:19;9.71;65.38
75457;SHT31;64036;48.266;14.192;2022-11-06T16:21:49;9.64;65.56
75457;SHT31;64036;48.266;14.192;2022-11-06T16:24:51;9.58;65.71
75457;SHT31;64036;48.266;14.192;2022-11-06T16:27:20;9.54;65.87
75457;SHT31;64036;48.266;14.192;2022-11-06T16:29:52;9.47;66.00
75457;SHT31;64036;48.266;14.192;2022-11-06T16:32:22;9.39;66.24
75457;SHT31;64036;48.266;14.192;2022-11-06T16:34:52;9.32;66.51
75457;SHT31;64036;48.266;14.192;2022-11-06T16:39:51;9.22;66.71
75457;SHT31;64036;48.266;14.192;2022-11-06T16:44:47;9.08;67.12
75457;SHT31;64036;48.266;14.192;2022-11-06T16:49:43;9.06;67.07
75457;SHT31;64036;48.266;14.192;2022-11-06T16:54:56;9.08;67.13
75457;SHT31;64036;48.266;14.192;2022-11-06T16:57:44;9.04;67.22
75457;SHT31;64036;48.266;14.192;2022-11-06T17:02:55;9.01;67.60
75457;SHT31;64036;48.266;14.192;2022-11-06T17:05:25;8.99;67.67
75457;SHT31;64036;48.266;14.192;2022-11-06T17:10:51;8.87;68.25
75457;SHT31;64036;48.266;14.192;2022-11-06T17:13:19;8.82;68.43
75457;SHT31;64036;48.266;14.192;2022-11-06T17:18:25;8.76;68.70
75457;SHT31;64036;48.266;14.192;2022-11-06T17:20:56;8.67;68.94
75457;SHT31;64036;48.266;14.192;2022-11-06T17:23:24;8.61;69.11
75457;SHT31;64036;48.266;14.192;2022-11-06T17:25:52;8.57;69.48
75457;SHT31;64036;48.266;14.192;2022-11-06T17:28:22;8.49;69.73
75457;SHT31;64036;48.266;14.192;2022-11-06T17:30:47;8.44;69.87
75457;SHT31;64036;48.266;14.192;2022-11-06T17:33:14;8.40;69.91
75457;SHT31;64036;48.266;14.192;2022-11-06T17:35:40;8.34;70.14
75457;SHT31;64036;48.266;14.192;2022-11-06T17:38:06;8.30;70.41
75457;SHT31;64036;48.266;14.192;2022-11-06T17:40:32;8.27;70.75
75457;SHT31;64036;48.266;14.192;2022-11-06T17:42:57;8.22;70.88
75457;SHT31;64036;48.266;14.192;2022-11-06T17:45:23;8.17;71.19
75457;SHT31;64036;48.266;14.192;2022-11-06T17:47:48;8.12;71.50
75457;SHT31;64036;48.266;14.192;2022-11-06T17:50:14;8.07;71.94
75457;SHT31;64036;48.266;14.192;2022-11-06T17:52:40;8.03;72.26
75457;SHT31;64036;48.266;14.192;2022-11-06T17:55:05;7.97;72.71
75457;SHT31;64036;48.266;14.192;2022-11-06T17:57:31;7.91;73.03
75457;SHT31;64036;48.266;14.192;2022-11-06T17:59:57;7.85;73.03
75457;SHT31;64036;48.266;14.192;2022-11-06T18:02:23;7.82;73.03
75457;SHT31;64036;48.266;14.192;2022-11-06T18:04:48;7.80;73.23
75457;SHT31;64036;48.266;14.192;2022-11-06T18:07:15;7.76;73.39
75457;SHT31;64036;48.266;14.192;2022-11-06T18:09:42;7.77;73.27
75457;SHT31;64036;48.266;14.192;2022-11-06T18:12:09;7.77;73.08
75457;SHT31;64036;48.266;14.192;2022-11-06T18:14:38;7.77;73.01
75457;SHT31;64036;48.266;14.192;2022-11-06T18:17:04;7.77;72.94
75457;SHT31;64036;48.266;14.192;2022-11-06T18:19:29;7.78;73.01
75457;SHT31;64036;48.266;14.192;2022-11-06T18:21:56;7.77;73.00
75457;SHT31;64036;48.266;14.192;2022-11-06T18:24:22;7.75;73.05
75457;SHT31;64036;48.266;14.192;2022-11-06T18:26:49;7.71;72.98
75457;SHT31;64036;48.266;14.192;2022-11-06T18:29:15;7.68;73.17
75457;SHT31;64036;48.266;14.192;2022-11-06T18:31:41;7.63;73.26
75457;SHT31;64036;48.266;14.192;2022-11-06T18:34:09;7.60;73.40
75457;SHT31;64036;48.266;14.192;2022-11-06T18:36:36;7.56;73.40
75457;SHT31;64036;48.266;14.192;2022-11-06T18:39:02;7.50;73.51
75457;SHT31;64036;48.266;14.192;2022-11-06T18:41:29;7.47;73.64
75457;SHT31;64036;48.266;14.192;2022-11-06T18:43:56;7.43;73.70
75457;SHT31;64036;48.266;14.192;2022-11-06T18:46:23;7.36;73.90
75457;SHT31;64036;48.266;14.192;2022-11-06T18:48:54;7.33;74.05
75457;SHT31;64036;48.266;14.192;2022-11-06T18:51:21;7.27;74.21
75457;SHT31;64036;48.266;14.192;2022-11-06T18:53:53;7.25;74.34
75457;SHT31;64036;48.266;14.192;2022-11-06T18:56:21;7.22;74.27
75457;SHT31;64036;48.266;14.192;2022-11-06T18:58:47;7.18;74.30
75457;SHT31;64036;48.266;14.192;2022-11-06T19:01:17;7.11;74.46